Terminal Aerodrome Forecast
Issued by NWS

Home | Current Version | Previous Version | Text Only | Print | Product List | Glossary On
Versions: 1 2 3 4 5 6 7 8 9 10 11 12 13 14 15 16 17 18
000
FTUS43 KMQT 021932 AAA
TAFIWD
TAF AMD
KIWD 021932Z 0220/0318 31010G20KT P6SM SCT060
     FM022300 31009KT P6SM SCT070
     FM030600 28005KT P6SM SCT070
     FM031500 28009KT P6SM BKN050
      AMD LTD TO CLD VIS AND WIND=

USA.gov is the U.S. government's official web portal to all federal, state and local government web resources and services.